createdAt,value
2022-08-07T00:00:14.178Z,4.25
2022-08-07T00:02:44.216Z,3.55
2022-08-07T00:05:11.123Z,4.70
2022-08-07T00:07:40.915Z,4.50
2022-08-07T00:10:26.325Z,4.72
2022-08-07T00:13:00.001Z,8.10
2022-08-07T00:15:38.308Z,4.55
2022-08-07T00:18:19.590Z,4.30
2022-08-07T00:20:46.782Z,4.07
2022-08-07T00:23:14.851Z,4.35
2022-08-07T00:25:43.581Z,4.50
2022-08-07T00:28:12.442Z,3.70
2022-08-07T00:30:42.062Z,4.40
2022-08-07T00:33:08.789Z,4.15
2022-08-07T00:35:36.727Z,5.00
2022-08-07T00:38:03.907Z,7.38
2022-08-07T00:40:40.061Z,4.32
2022-08-07T00:43:09.783Z,3.60
2022-08-07T00:45:37.340Z,4.50
2022-08-07T00:48:08.802Z,4.60
2022-08-07T00:50:46.221Z,5.80
2022-08-07T00:53:17.330Z,5.35
2022-08-07T00:56:02.894Z,3.63
2022-08-07T00:58:30.322Z,4.07
2022-08-07T01:00:56.674Z,6.35
2022-08-07T01:03:56.659Z,3.88
2022-08-07T01:06:09.711Z,6.75
2022-08-07T01:08:43.014Z,4.05
2022-08-07T01:12:04.595Z,5.00
2022-08-07T01:14:04.561Z,4.63
2022-08-07T01:16:31.441Z,8.45
2022-08-07T01:18:58.322Z,7.85
2022-08-07T01:21:26.223Z,5.20
2022-08-07T01:23:55.080Z,4.78
2022-08-07T01:26:22.462Z,5.13
2022-08-07T01:28:53.707Z,5.43
2022-08-07T01:31:21.223Z,5.72
2022-08-07T01:33:57.368Z,4.20
2022-08-07T01:36:33.886Z,4.88
2022-08-07T01:39:09.669Z,4.25
2022-08-07T01:41:38.027Z,6.85
2022-08-07T01:44:04.980Z,4.47
2022-08-07T01:46:31.507Z,4.15
2022-08-07T01:48:59.954Z,4.90
2022-08-07T01:52:01.663Z,5.93
2022-08-07T01:54:22.053Z,4.25
2022-08-07T01:57:24.901Z,7.38
2022-08-07T02:00:01.890Z,4.68
2022-08-07T02:03:18.835Z,4.18
2022-08-07T02:05:47.532Z,5.05
2022-08-07T02:08:13.949Z,4.82
2022-08-07T02:10:42.383Z,4.90
2022-08-07T02:13:09.188Z,8.05
2022-08-07T02:15:36.843Z,5.18
2022-08-07T02:18:03.933Z,5.00
2022-08-07T02:20:31.081Z,5.07
2022-08-07T02:23:02.780Z,5.60
2022-08-07T02:26:10.734Z,4.72
2022-08-07T02:28:24.688Z,5.10
2022-08-07T02:30:52.301Z,5.40
2022-08-07T02:33:19.350Z,6.70
2022-08-07T02:36:29.206Z,10.50
2022-08-07T02:38:36.780Z,4.60
2022-08-07T02:41:04.277Z,5.55
2022-08-07T02:43:31.074Z,5.82
2022-08-07T02:46:01.813Z,5.70
2022-08-07T02:48:29.224Z,5.25
2022-08-07T02:50:56.082Z,5.22
2022-08-07T02:53:31.235Z,5.43
2022-08-07T02:56:07.295Z,5.15
2022-08-07T02:58:47.281Z,5.13
2022-08-07T03:01:18.858Z,5.80
2022-08-07T03:04:03.396Z,5.13
2022-08-07T03:06:34.609Z,7.95
2022-08-07T03:09:02.099Z,7.60
2022-08-07T03:11:28.785Z,5.97
2022-08-07T03:14:01.863Z,6.85
2022-08-07T03:16:28.957Z,5.47
2022-08-07T03:18:57.003Z,7.15
2022-08-07T03:21:24.423Z,6.32
2022-08-07T03:24:20.056Z,8.52
2022-08-07T03:26:51.347Z,4.82
2022-08-07T03:29:25.603Z,4.93
2022-08-07T03:31:54.059Z,5.38
2022-08-07T03:34:22.841Z,5.70
2022-08-07T03:36:54.152Z,5.88
2022-08-07T03:39:46.366Z,7.57
2022-08-07T03:42:07.338Z,6.40
2022-08-07T03:44:35.953Z,6.00
2022-08-07T03:47:14.222Z,6.30
2022-08-07T03:49:52.424Z,7.15
2022-08-07T03:52:22.785Z,6.20
2022-08-07T03:54:57.369Z,5.80
2022-08-07T03:58:33.772Z,7.97
2022-08-07T04:00:21.073Z,7.43
2022-08-07T04:02:56.755Z,8.43
2022-08-07T04:05:24.070Z,7.57
2022-08-07T04:08:05.643Z,8.43
2022-08-07T04:10:32.674Z,6.68
2022-08-07T04:13:05.415Z,6.13
2022-08-07T04:15:31.780Z,6.32
2022-08-07T04:18:30.797Z,7.97
2022-08-07T04:20:54.640Z,6.72
2022-08-07T04:23:21.559Z,5.90
2022-08-07T04:25:49.158Z,6.75
2022-08-07T04:28:15.599Z,9.95
2022-08-07T04:30:57.137Z,7.10
2022-08-07T04:33:25.437Z,5.93
2022-08-07T04:35:53.947Z,6.93
2022-08-07T04:38:20.938Z,7.40
2022-08-07T04:40:52.567Z,6.03
2022-08-07T04:43:20.945Z,7.72
2022-08-07T04:46:01.699Z,7.32
2022-08-07T04:48:34.853Z,6.68
2022-08-07T04:51:09.275Z,7.28
2022-08-07T04:54:01.219Z,6.13
2022-08-07T04:58:23.768Z,8.05
2022-08-07T05:00:12.730Z,7.30
2022-08-07T05:02:23.911Z,6.60
2022-08-07T05:04:57.539Z,5.88
2022-08-07T05:07:37.058Z,6.60
2022-08-07T05:10:21.243Z,6.72
2022-08-07T05:12:53.112Z,5.93
2022-08-07T05:15:24.482Z,6.20
2022-08-07T05:17:55.969Z,6.65
2022-08-07T05:20:26.740Z,7.65
2022-08-07T05:22:56.587Z,7.30
2022-08-07T05:25:25.669Z,7.13
2022-08-07T05:28:20.085Z,7.20
2022-08-07T05:30:49.618Z,9.20
2022-08-07T05:33:18.199Z,11.05
2022-08-07T05:35:47.880Z,10.98
2022-08-07T05:38:58.279Z,9.95
2022-08-07T05:41:12.349Z,9.52
2022-08-07T05:43:43.452Z,9.30
2022-08-07T05:46:29.490Z,9.70
2022-08-07T05:48:58.237Z,7.07
2022-08-07T05:51:26.140Z,8.27
2022-08-07T05:54:12.001Z,7.82
2022-08-07T05:56:46.576Z,10.13
2022-08-07T05:59:14.516Z,7.90
2022-08-07T06:01:41.539Z,11.73
2022-08-07T06:04:08.916Z,9.27
2022-08-07T06:06:35.680Z,6.90
2022-08-07T06:09:04.580Z,9.15
2022-08-07T06:11:32.419Z,6.78
2022-08-07T06:14:11.596Z,9.15
2022-08-07T06:16:40.587Z,9.55
2022-08-07T06:19:08.014Z,10.15
2022-08-07T06:22:14.587Z,8.63
2022-08-07T06:24:53.033Z,7.80
2022-08-07T06:27:22.749Z,5.75
2022-08-07T06:30:08.462Z,6.75
2022-08-07T06:32:54.743Z,9.88
2022-08-07T06:35:21.087Z,6.22
2022-08-07T06:37:48.975Z,5.88
2022-08-07T06:40:21.403Z,7.85
2022-08-07T06:42:48.892Z,5.95
2022-08-07T06:45:18.257Z,8.90
2022-08-07T06:47:57.080Z,6.45
2022-08-07T06:50:24.773Z,11.88
2022-08-07T06:52:53.326Z,5.82
2022-08-07T06:55:34.247Z,7.68
2022-08-07T06:58:13.802Z,6.63
2022-08-07T07:00:44.368Z,6.57
2022-08-07T07:03:14.376Z,8.38
2022-08-07T07:06:04.188Z,6.32
2022-08-07T07:08:33.037Z,5.72
2022-08-07T07:10:59.988Z,8.30
2022-08-07T07:13:55.701Z,5.88
2022-08-07T07:16:21.883Z,6.78
2022-08-07T07:18:50.047Z,6.45
2022-08-07T07:21:19.556Z,7.00
2022-08-07T07:24:06.074Z,9.52
2022-08-07T07:26:36.945Z,7.38
2022-08-07T07:29:38.382Z,9.70
2022-08-07T07:31:55.507Z,6.43
2022-08-07T07:34:31.122Z,6.50
2022-08-07T07:37:14.618Z,6.03
2022-08-07T07:39:54.834Z,7.15
2022-08-07T07:42:25.675Z,8.07
2022-08-07T07:44:57.461Z,7.00
2022-08-07T07:47:24.418Z,6.25
2022-08-07T07:50:34.013Z,8.48
2022-08-07T07:52:38.930Z,6.22
2022-08-07T07:55:07.535Z,7.43
2022-08-07T07:57:51.844Z,8.73
2022-08-07T08:00:28.938Z,6.50
2022-08-07T08:03:05.561Z,7.15
2022-08-07T08:08:32.129Z,6.30
2022-08-07T08:11:02.731Z,6.40
2022-08-07T08:13:36.881Z,7.30
2022-08-07T08:16:19.733Z,5.90
2022-08-07T08:18:53.600Z,4.97
2022-08-07T08:21:55.691Z,7.80
2022-08-07T08:24:46.625Z,6.30
2022-08-07T08:27:16.772Z,6.03
2022-08-07T08:29:55.589Z,6.30
2022-08-07T08:32:25.409Z,5.38
2022-08-07T08:34:52.682Z,4.78
2022-08-07T08:37:23.651Z,8.10
2022-08-07T08:40:12.379Z,4.80
2022-08-07T08:42:54.508Z,5.93
2022-08-07T08:45:58.665Z,5.93
2022-08-07T08:48:50.919Z,5.97
2022-08-07T08:52:12.498Z,6.38
2022-08-07T08:54:32.655Z,4.82
2022-08-07T08:57:02.340Z,6.50
2022-08-07T08:59:42.210Z,5.30
2022-08-07T09:02:36.567Z,6.20
2022-08-07T09:05:36.745Z,4.68
2022-08-07T09:08:30.079Z,5.82
2022-08-07T09:11:05.166Z,3.88
2022-08-07T09:13:43.608Z,6.38
2022-08-07T09:16:29.973Z,5.57
2022-08-07T09:19:51.752Z,4.10
2022-08-07T09:22:22.928Z,5.07
2022-08-07T09:24:58.904Z,6.72
2022-08-07T09:27:30.775Z,4.80
2022-08-07T09:30:09.015Z,5.63
2022-08-07T09:32:35.551Z,5.15
2022-08-07T09:35:04.447Z,3.97
2022-08-07T09:37:57.219Z,4.53
2022-08-07T09:40:38.458Z,4.22
2022-08-07T09:43:18.122Z,3.60
2022-08-07T09:47:25.316Z,3.58
2022-08-07T09:50:00.450Z,3.85
2022-08-07T09:52:16.113Z,4.18
2022-08-07T09:54:47.857Z,5.38
2022-08-07T09:57:16.987Z,4.50
2022-08-07T10:00:05.120Z,5.60
2022-08-07T10:02:55.468Z,4.30
2022-08-07T10:05:59.177Z,7.18
2022-08-07T10:08:46.065Z,3.45
2022-08-07T10:12:03.072Z,3.25
2022-08-07T10:14:54.152Z,3.35
2022-08-07T10:18:00.380Z,3.53
2022-08-07T10:20:30.571Z,4.00
2022-08-07T10:23:10.618Z,3.42
2022-08-07T10:25:45.806Z,3.88
2022-08-07T10:28:31.233Z,3.63
2022-08-07T10:31:14.858Z,6.35
2022-08-07T10:34:15.085Z,3.63
2022-08-07T10:36:45.511Z,4.20
2022-08-07T10:39:42.262Z,4.38
2022-08-07T10:42:20.864Z,4.53
2022-08-07T10:45:00.697Z,3.45
2022-08-07T10:47:53.773Z,3.17
2022-08-07T10:50:19.807Z,3.38
2022-08-07T10:53:10.411Z,3.50
2022-08-07T10:55:37.696Z,3.38
2022-08-07T10:58:11.147Z,6.55
2022-08-07T11:01:01.416Z,2.92
2022-08-07T11:03:52.793Z,2.97
2022-08-07T11:06:32.001Z,3.20
2022-08-07T11:09:11.203Z,3.42
2022-08-07T11:11:59.160Z,3.00
2022-08-07T11:14:59.972Z,3.33
2022-08-07T11:17:43.201Z,4.05
2022-08-07T11:20:24.326Z,3.92
2022-08-07T11:23:09.294Z,4.45
2022-08-07T11:25:48.188Z,7.03
2022-08-07T11:28:25.232Z,3.45
2022-08-07T11:30:55.896Z,3.08
2022-08-07T11:33:53.832Z,4.43
2022-08-07T11:36:30.793Z,4.07
2022-08-07T11:39:19.700Z,3.53
2022-08-07T11:42:01.747Z,3.92
2022-08-07T11:44:35.171Z,2.97
2022-08-07T11:47:20.034Z,5.78
2022-08-07T11:50:32.436Z,4.70
2022-08-07T11:53:04.961Z,3.53
2022-08-07T11:56:25.167Z,3.92
2022-08-07T11:58:33.148Z,3.78
2022-08-07T12:01:26.135Z,3.60
2022-08-07T12:04:25.470Z,3.38
2022-08-07T12:07:01.042Z,3.05
2022-08-07T12:09:36.076Z,2.83
2022-08-07T12:12:10.314Z,3.30
2022-08-07T12:14:55.613Z,2.95
2022-08-07T12:17:33.898Z,3.10
2022-08-07T12:20:09.464Z,3.22
2022-08-07T12:22:58.667Z,2.90
2022-08-07T12:26:03.448Z,4.68
2022-08-07T12:28:49.866Z,2.72
2022-08-07T12:31:24.604Z,3.00
2022-08-07T12:34:00.845Z,2.90
2022-08-07T12:36:32.785Z,3.40
2022-08-07T12:39:01.887Z,2.85
2022-08-07T12:41:42.752Z,2.95
2022-08-07T12:44:17.208Z,3.47
2022-08-07T12:47:02.907Z,4.63
2022-08-07T12:49:51.614Z,3.03
2022-08-07T12:52:29.438Z,2.75
2022-08-07T12:55:09.368Z,3.70
2022-08-07T12:57:39.241Z,3.55
2022-08-07T13:00:32.996Z,4.28
2022-08-07T13:04:02.150Z,3.25
2022-08-07T13:06:29.644Z,3.20
2022-08-07T13:08:59.896Z,5.63
2022-08-07T13:12:03.117Z,3.05
2022-08-07T13:14:50.820Z,3.30
2022-08-07T13:17:18.150Z,2.95
2022-08-07T13:19:52.770Z,3.30
2022-08-07T13:22:37.081Z,2.95
2022-08-07T13:25:05.896Z,4.32
2022-08-07T13:28:10.646Z,3.72
2022-08-07T13:30:44.171Z,2.78
2022-08-07T13:34:30.402Z,2.97
2022-08-07T13:36:27.372Z,3.22
2022-08-07T13:39:04.895Z,4.13
2022-08-07T13:41:42.649Z,4.38
2022-08-07T13:44:17.479Z,4.00
2022-08-07T13:46:57.520Z,3.85
2022-08-07T13:50:34.722Z,2.67
2022-08-07T13:52:31.779Z,3.38
2022-08-07T13:55:06.542Z,2.90
2022-08-07T13:57:38.462Z,3.30
2022-08-07T14:00:07.554Z,4.03
2022-08-07T14:02:49.177Z,3.70
2022-08-07T14:05:20.256Z,3.33
2022-08-07T14:07:59.952Z,2.83
2022-08-07T14:10:32.619Z,3.10
2022-08-07T14:13:01.240Z,6.80
2022-08-07T14:15:31.705Z,4.22
2022-08-07T14:18:24.468Z,3.70
2022-08-07T14:20:54.662Z,3.30
2022-08-07T14:23:54.654Z,3.03
2022-08-07T14:26:28.211Z,2.90
2022-08-07T14:29:08.615Z,3.28
2022-08-07T14:31:55.980Z,3.20
2022-08-07T14:34:29.534Z,5.95
2022-08-07T14:36:56.765Z,4.13
2022-08-07T14:40:15.848Z,4.05
2022-08-07T14:42:20.915Z,3.22
2022-08-07T14:44:52.251Z,3.05
2022-08-07T14:47:19.172Z,3.85
2022-08-07T14:49:56.863Z,3.10
2022-08-07T14:52:28.777Z,5.47
2022-08-07T14:54:58.556Z,4.72
2022-08-07T14:57:54.583Z,5.47
2022-08-07T15:00:13.101Z,5.03
2022-08-07T15:02:57.273Z,3.05
2022-08-07T15:05:24.067Z,7.18
2022-08-07T15:07:52.005Z,3.83
2022-08-07T15:10:20.327Z,3.08
2022-08-07T15:15:42.815Z,2.97
2022-08-07T15:21:08.368Z,2.60
2022-08-07T15:25:16.313Z,2.90
2022-08-07T15:26:45.764Z,3.70
2022-08-07T15:30:10.103Z,2.63
2022-08-07T15:32:02.707Z,4.60
2022-08-07T15:40:34.251Z,2.78
2022-08-07T15:43:10.380Z,2.75
2022-08-07T15:46:01.581Z,3.35
2022-08-07T15:48:33.150Z,4.47
2022-08-07T15:51:09.378Z,2.90
2022-08-07T15:53:53.774Z,3.17
2022-08-07T15:56:24.108Z,3.15
2022-08-07T15:58:57.832Z,3.00
2022-08-07T16:01:39.385Z,3.17
2022-08-07T16:04:14.521Z,4.40
2022-08-07T16:06:58.186Z,8.20
2022-08-07T16:09:42.336Z,5.03
2022-08-07T16:12:29.069Z,7.43
2022-08-07T16:15:07.657Z,5.15
2022-08-07T16:18:02.952Z,4.20
2022-08-07T16:20:33.881Z,3.42
2022-08-07T16:23:05.543Z,3.08
2022-08-07T16:25:56.093Z,2.92
2022-08-07T16:30:06.571Z,5.07
2022-08-07T16:31:50.321Z,3.67
2022-08-07T16:34:26.318Z,3.70
2022-08-07T16:38:06.070Z,4.93
2022-08-07T16:39:58.683Z,6.53
2022-08-07T16:42:43.317Z,9.25
2022-08-07T16:45:15.085Z,8.77
2022-08-07T16:47:56.737Z,5.47
2022-08-07T16:50:35.846Z,7.53
2022-08-07T16:54:01.173Z,7.05
2022-08-07T16:56:31.877Z,5.95
2022-08-07T16:59:21.828Z,5.93
2022-08-07T17:01:58.887Z,4.78
2022-08-07T17:04:33.067Z,5.40
2022-08-07T17:07:09.119Z,5.82
2022-08-07T17:10:06.314Z,4.25
2022-08-07T17:12:53.183Z,4.53
2022-08-07T17:15:44.458Z,4.80
2022-08-07T17:18:22.822Z,5.43
2022-08-07T17:20:54.689Z,4.10
2022-08-07T17:23:32.521Z,6.40
2022-08-07T17:26:23.276Z,3.97
2022-08-07T17:30:12.531Z,4.82
2022-08-07T17:32:06.301Z,3.90
2022-08-07T17:35:08.895Z,3.63
2022-08-07T17:38:06.260Z,4.15
2022-08-07T17:40:50.392Z,5.15
2022-08-07T17:44:01.419Z,5.22
2022-08-07T17:46:09.861Z,3.70
2022-08-07T17:48:42.812Z,4.25
2022-08-07T17:51:21.548Z,5.00
2022-08-07T17:54:06.264Z,5.72
2022-08-07T17:56:35.167Z,3.58
2022-08-07T17:59:04.396Z,4.93
2022-08-07T18:01:39.398Z,3.78
2022-08-07T18:07:20.081Z,3.53
2022-08-07T18:10:06.349Z,4.13
2022-08-07T18:12:52.874Z,4.03
2022-08-07T18:15:22.773Z,4.72
2022-08-07T18:18:45.625Z,5.47
2022-08-07T18:21:12.802Z,4.22
2022-08-07T18:23:58.615Z,6.47
2022-08-07T18:29:02.781Z,4.05
2022-08-07T18:31:50.128Z,3.47
2022-08-07T18:34:34.809Z,3.85
2022-08-07T18:38:58.480Z,4.75
2022-08-07T18:40:42.795Z,4.40
2022-08-07T18:43:30.655Z,4.32
2022-08-07T18:46:25.794Z,3.72
2022-08-07T18:50:30.415Z,4.47
2022-08-07T18:52:37.567Z,7.00
2022-08-07T18:55:42.021Z,6.55
2022-08-07T18:58:00.461Z,5.88
2022-08-07T19:00:35.657Z,7.97
2022-08-07T19:06:02.028Z,7.45
2022-08-07T19:08:25.684Z,7.47
2022-08-07T19:10:59.452Z,4.28
2022-08-07T19:13:27.737Z,6.97
2022-08-07T19:16:43.214Z,4.43
2022-08-07T19:19:13.160Z,8.93
2022-08-07T19:21:58.579Z,5.22
2022-08-07T19:24:36.828Z,5.05
2022-08-07T19:28:30.033Z,6.70
2022-08-07T19:31:06.292Z,7.70
2022-08-07T19:32:50.872Z,5.38
2022-08-07T19:35:22.574Z,10.73
2022-08-07T19:37:56.392Z,7.07
2022-08-07T19:40:30.898Z,6.47
2022-08-07T19:42:59.899Z,7.47
2022-08-07T19:46:01.189Z,6.03
2022-08-07T19:48:18.097Z,7.43
2022-08-07T19:50:53.118Z,5.20
2022-08-07T19:54:29.994Z,6.18
2022-08-07T19:58:00.224Z,6.90
2022-08-07T19:58:58.034Z,6.15
2022-08-07T20:01:52.745Z,7.47
2022-08-07T20:04:31.843Z,5.47
2022-08-07T20:07:02.182Z,5.53
2022-08-07T20:10:37.000Z,8.70
2022-08-07T20:12:31.251Z,9.30
2022-08-07T20:15:02.583Z,7.03
2022-08-07T20:17:30.973Z,4.93
2022-08-07T20:19:59.021Z,9.10
2022-08-07T20:22:29.399Z,8.50
2022-08-07T20:25:06.099Z,6.88
2022-08-07T20:27:45.810Z,7.43
2022-08-07T20:30:13.500Z,7.88
2022-08-07T20:35:17.819Z,7.18
2022-08-07T20:37:57.755Z,7.78
2022-08-07T20:40:32.985Z,8.20
2022-08-07T20:43:02.019Z,12.23
2022-08-07T20:45:32.957Z,6.78
2022-08-07T20:48:30.294Z,7.88
2022-08-07T20:51:00.926Z,13.10
2022-08-07T20:54:04.819Z,10.57
2022-08-07T20:56:16.701Z,7.35
2022-08-07T20:58:53.618Z,6.60
2022-08-07T21:01:22.158Z,6.65
2022-08-07T21:04:18.777Z,8.13
2022-08-07T21:06:38.018Z,8.52
2022-08-07T21:09:14.393Z,10.95
2022-08-07T21:11:50.845Z,7.68
2022-08-07T21:14:32.542Z,5.63
2022-08-07T21:18:00.890Z,7.85
2022-08-07T21:20:00.894Z,7.18
2022-08-07T21:22:33.241Z,5.10
2022-08-07T21:25:12.130Z,10.75
2022-08-07T21:27:47.046Z,11.73
2022-08-07T21:30:15.044Z,6.57
2022-08-07T21:33:00.671Z,7.15
2022-08-07T21:36:04.825Z,10.73
2022-08-07T21:38:37.456Z,6.68
2022-08-07T21:41:19.187Z,6.65
2022-08-07T21:43:55.960Z,6.68
2022-08-07T21:46:31.613Z,7.10
2022-08-07T21:49:17.751Z,6.35
2022-08-07T21:51:54.734Z,8.45
2022-08-07T21:54:27.517Z,9.02
2022-08-07T21:57:16.158Z,6.18
2022-08-07T22:00:06.113Z,9.63
2022-08-07T22:02:41.161Z,6.45
2022-08-07T22:05:12.194Z,7.57
2022-08-07T22:07:58.922Z,7.68
2022-08-07T22:10:33.732Z,6.07
2022-08-07T22:13:03.061Z,6.18
2022-08-07T22:16:42.991Z,6.50
2022-08-07T22:18:50.355Z,8.32
2022-08-07T22:22:02.613Z,6.25
2022-08-07T22:24:23.112Z,10.55
2022-08-07T22:27:04.094Z,8.77
2022-08-07T22:29:56.650Z,6.47
2022-08-07T22:32:33.435Z,9.30
2022-08-07T22:35:01.456Z,8.35
2022-08-07T22:38:02.908Z,9.10
2022-08-07T22:40:23.931Z,11.52
2022-08-07T22:42:52.796Z,8.35
2022-08-07T22:46:04.461Z,9.18
2022-08-07T22:48:31.639Z,13.35
2022-08-07T22:51:06.854Z,14.65
2022-08-07T22:54:05.480Z,11.27
2022-08-07T22:56:44.461Z,14.40
2022-08-07T22:59:32.686Z,9.80
2022-08-07T23:02:27.598Z,10.55
2022-08-07T23:06:07.049Z,12.40
2022-08-07T23:07:57.411Z,12.45
2022-08-07T23:10:37.630Z,13.00
2022-08-07T23:13:06.175Z,11.15
2022-08-07T23:16:05.434Z,11.40
2022-08-07T23:18:25.808Z,9.95
2022-08-07T23:21:11.229Z,10.70
2022-08-07T23:24:06.044Z,8.27
2022-08-07T23:26:56.212Z,7.93
2022-08-07T23:29:44.054Z,15.88
2022-08-07T23:34:23.019Z,9.68
2022-08-07T23:35:37.597Z,8.98
2022-08-07T23:38:04.129Z,8.35
2022-08-07T23:40:34.232Z,8.63
2022-08-07T23:43:18.840Z,9.05
2022-08-07T23:46:03.189Z,6.88
2022-08-07T23:48:53.247Z,11.13
2022-08-07T23:52:58.692Z,9.55
2022-08-07T23:54:19.946Z,8.60
2022-08-07T23:57:14.013Z,9.55
